Time;durP1;ratioP1;P1;durP2;ratioP2;P2;SDS_P1;SDS_P2;PMS_P1;PMS_P2;Temp;Humidity;BMP_temperature;BMP_pressure;BME280_temperature;BME280_humidity;BME280_pressure;Samples;Min_cycle;Max_cycle;Signal;HPM_P1;HPM_P2
2022/08/18 00:01:22;;;;;;;4.00;3.63;;;19.10;99.90;;;;;;5080933;28;20218;-42
2022/08/18 00:03:50;;;;;;;3.40;3.17;;;19.10;99.90;;;;;;5065742;28;20221;-45
2022/08/18 00:06:18;;;;;;;3.60;3.30;;;19.10;99.90;;;;;;5065848;28;20206;-42
2022/08/18 00:08:45;;;;;;;3.87;3.23;;;19.10;99.90;;;;;;5073155;28;20240;-43
2022/08/18 00:11:12;;;;;;;3.73;3.53;;;19.10;99.90;;;;;;5074607;28;20229;-42
2022/08/18 00:13:41;;;;;;;4.40;3.50;;;19.10;99.90;;;;;;5074722;28;20194;-42
2022/08/18 00:16:07;;;;;;;4.07;3.77;;;19.10;99.90;;;;;;5083622;28;20736;-45
2022/08/18 00:18:34;;;;;;;3.80;3.50;;;19.10;99.90;;;;;;5065301;28;20198;-43
2022/08/18 00:21:01;;;;;;;3.50;3.20;;;19.10;99.90;;;;;;5079074;28;20213;-42
2022/08/18 00:23:31;;;;;;;4.33;3.60;;;19.10;99.90;;;;;;5066085;28;20322;-44
2022/08/18 00:25:59;;;;;;;3.93;3.53;;;19.10;99.90;;;;;;5072762;28;20206;-42
2022/08/18 00:28:26;;;;;;;5.10;3.70;;;19.10;99.90;;;;;;5061372;28;20226;-44
2022/08/18 00:30:54;;;;;;;3.37;3.17;;;19.10;99.90;;;;;;5071131;28;20911;-47
2022/08/18 00:33:20;;;;;;;3.80;3.50;;;19.00;99.90;;;;;;5074420;28;20252;-46
2022/08/18 00:35:48;;;;;;;3.60;3.40;;;19.00;99.90;;;;;;5059427;28;20360;-43
2022/08/18 00:38:14;;;;;;;3.93;3.63;;;19.00;99.90;;;;;;5053333;28;20679;-42
2022/08/18 00:40:43;;;;;;;4.17;3.83;;;19.00;99.90;;;;;;5070405;28;20216;-43
2022/08/18 00:43:18;;;;;;;3.63;3.33;;;19.00;99.90;;;;;;5076060;28;20207;-42
2022/08/18 00:45:46;;;;;;;3.80;3.50;;;19.00;99.90;;;;;;5073998;28;20268;-42
2022/08/18 00:48:14;;;;;;;4.33;3.63;;;19.00;99.90;;;;;;5076335;28;20338;-45
2022/08/18 00:50:48;;;;;;;4.07;3.67;;;18.90;99.90;;;;;;5066690;28;20222;-42
2022/08/18 00:53:19;;;;;;;4.73;4.33;;;19.00;99.90;;;;;;5064203;28;20220;-42
2022/08/18 00:55:47;;;;;;;4.20;3.87;;;18.90;99.90;;;;;;5086483;28;20235;-43
2022/08/18 00:58:20;;;;;;;4.40;4.00;;;18.90;99.90;;;;;;5071385;28;20190;-42
2022/08/18 01:00:49;;;;;;;4.10;3.80;;;18.90;99.90;;;;;;5080206;28;20206;-42
2022/08/18 01:03:20;;;;;;;4.80;4.27;;;18.90;99.90;;;;;;5083805;28;20216;-43
2022/08/18 01:05:53;;;;;;;4.53;4.23;;;18.90;99.90;;;;;;5078929;28;20206;-44
2022/08/18 01:08:19;;;;;;;3.87;3.57;;;18.90;99.90;;;;;;5069592;28;20303;-43
2022/08/18 01:10:47;;;;;;;4.73;4.30;;;18.90;99.90;;;;;;5085762;28;20957;-43
2022/08/18 01:13:15;;;;;;;4.60;4.30;;;18.90;99.90;;;;;;5074899;28;20202;-45
2022/08/18 01:15:42;;;;;;;4.53;4.03;;;18.90;99.90;;;;;;5067578;28;20195;-44
2022/08/18 01:23:53;;;;;;;3.97;3.77;;;18.90;99.90;;;;;;5066891;28;20498;-45
2022/08/18 01:26:21;;;;;;;4.77;3.93;;;18.80;99.90;;;;;;5075983;28;20802;-42
2022/08/18 01:28:49;;;;;;;4.83;4.43;;;18.80;99.90;;;;;;5080690;28;20214;-45
2022/08/18 01:31:33;;;;;;;4.80;4.40;;;18.80;99.90;;;;;;5088590;28;20253;-43
2022/08/18 01:34:01;;;;;;;4.33;4.03;;;18.80;99.90;;;;;;5078819;28;20198;-45
2022/08/18 01:36:28;;;;;;;7.57;4.30;;;18.80;99.90;;;;;;5071029;28;20576;-42
2022/08/18 01:38:57;;;;;;;4.73;4.33;;;18.80;99.90;;;;;;5068508;28;20659;-42
2022/08/18 01:41:24;;;;;;;5.27;3.93;;;18.80;99.90;;;;;;5063354;28;20222;-45
2022/08/18 01:43:51;;;;;;;5.60;4.60;;;18.80;99.90;;;;;;5076923;28;20202;-43
2022/08/18 01:46:19;;;;;;;5.50;4.23;;;18.70;99.90;;;;;;5072164;28;20554;-45
2022/08/18 01:48:47;;;;;;;7.53;4.13;;;18.80;99.90;;;;;;5086741;28;20221;-43
2022/08/18 01:51:13;;;;;;;4.63;4.20;;;18.70;99.90;;;;;;5072126;28;20718;-45
2022/08/18 01:53:40;;;;;;;7.43;4.80;;;18.80;99.90;;;;;;5074228;28;20189;-44
2022/08/18 01:56:09;;;;;;;5.10;4.70;;;18.80;99.90;;;;;;5069123;28;20212;-46
2022/08/18 01:58:36;;;;;;;5.73;5.13;;;18.80;99.90;;;;;;5085250;28;20322;-42
2022/08/18 02:01:05;;;;;;;4.63;4.20;;;18.80;99.90;;;;;;5077856;28;20221;-45
2022/08/18 02:03:35;;;;;;;5.90;4.40;;;18.70;99.90;;;;;;5077250;28;20289;-44
2022/08/18 02:06:04;;;;;;;4.80;4.50;;;18.70;99.90;;;;;;5070180;28;20324;-43
2022/08/18 02:08:31;;;;;;;5.60;5.20;;;18.70;99.90;;;;;;5061423;28;20725;-44
2022/08/18 02:10:58;;;;;;;5.23;4.83;;;18.60;99.90;;;;;;5062411;28;20297;-42
2022/08/18 02:13:26;;;;;;;5.03;4.63;;;18.60;99.90;;;;;;5077291;28;20248;-43
2022/08/18 02:15:53;;;;;;;6.40;5.20;;;18.60;99.90;;;;;;5067398;28;20209;-43
2022/08/18 02:18:26;;;;;;;4.93;4.50;;;18.60;99.90;;;;;;5064721;28;20208;-40
2022/08/18 02:20:54;;;;;;;8.23;4.93;;;18.60;99.90;;;;;;5065176;28;20276;-43
2022/08/18 02:23:20;;;;;;;5.10;4.53;;;18.60;99.90;;;;;;5062058;28;20207;-44
2022/08/18 02:25:47;;;;;;;6.20;5.53;;;18.60;99.90;;;;;;5057531;28;20229;-42
2022/08/18 02:28:15;;;;;;;5.93;5.43;;;18.60;99.90;;;;;;5076894;28;20199;-41
2022/08/18 02:30:43;;;;;;;5.77;4.97;;;18.60;99.90;;;;;;5071772;28;20984;-45
2022/08/18 02:33:11;;;;;;;5.03;4.73;;;18.60;99.90;;;;;;5072849;28;20205;-41
2022/08/18 02:35:39;;;;;;;5.53;5.03;;;18.50;99.90;;;;;;5061986;28;20197;-41
2022/08/18 02:38:07;;;;;;;5.90;5.37;;;18.60;99.90;;;;;;5066030;28;20202;-40
2022/08/18 02:40:35;;;;;;;5.83;5.17;;;18.60;99.90;;;;;;5062054;28;20232;-43
2022/08/18 02:43:06;;;;;;;6.00;5.47;;;18.60;99.90;;;;;;5059671;28;20214;-43
2022/08/18 02:45:33;;;;;;;5.67;4.63;;;18.60;99.90;;;;;;5072108;28;20191;-41
2022/08/18 02:48:00;;;;;;;5.90;5.30;;;18.60;99.90;;;;;;5065666;28;20260;-40
2022/08/18 02:50:27;;;;;;;5.87;5.13;;;18.60;99.90;;;;;;5062696;28;20699;-40
2022/08/18 02:52:55;;;;;;;5.33;4.70;;;18.60;99.90;;;;;;5064603;28;20209;-42
2022/08/18 02:55:25;;;;;;;5.47;5.00;;;18.60;99.90;;;;;;5060989;28;20202;-40
2022/08/18 02:57:53;;;;;;;5.93;5.53;;;18.60;99.90;;;;;;5059816;28;20474;-40
2022/08/18 03:00:19;;;;;;;5.47;5.07;;;18.60;99.90;;;;;;5079220;28;20214;-41
2022/08/18 03:02:47;;;;;;;5.93;5.33;;;18.60;99.90;;;;;;5071838;28;20190;-40
2022/08/18 03:05:16;;;;;;;6.73;5.37;;;18.60;99.90;;;;;;5064715;28;20728;-40
2022/08/18 03:07:44;;;;;;;6.63;5.87;;;18.50;99.90;;;;;;5075117;28;20196;-41
2022/08/18 03:10:13;;;;;;;6.63;5.97;;;18.50;99.90;;;;;;5084339;28;20217;-40
2022/08/18 03:12:41;;;;;;;5.60;5.20;;;18.50;99.90;;;;;;5048432;28;24582;-41
2022/08/18 03:15:11;;;;;;;5.87;5.27;;;18.50;99.90;;;;;;5069901;28;20194;-43
2022/08/18 03:17:38;;;;;;;6.30;5.80;;;18.40;99.90;;;;;;5066578;28;20205;-44
2022/08/18 03:20:06;;;;;;;5.23;4.73;;;18.40;99.90;;;;;;5064778;28;20582;-40
2022/08/18 03:22:34;;;;;;;5.70;5.30;;;18.40;99.90;;;;;;5060981;28;20202;-41
2022/08/18 03:25:01;;;;;;;5.70;5.17;;;18.40;99.90;;;;;;5063670;28;20316;-40
2022/08/18 03:27:28;;;;;;;6.03;5.03;;;18.50;99.90;;;;;;5052913;28;20269;-39
2022/08/18 03:29:55;;;;;;;5.80;5.43;;;18.40;99.90;;;;;;5073336;28;20229;-41
2022/08/18 03:32:22;;;;;;;6.73;5.93;;;18.50;99.90;;;;;;5071677;28;20221;-39
2022/08/18 03:34:49;;;;;;;7.10;6.43;;;18.50;99.90;;;;;;5061791;28;20195;-43
2022/08/18 03:37:16;;;;;;;6.97;6.40;;;18.40;99.90;;;;;;5064305;28;20206;-42
2022/08/18 03:39:44;;;;;;;7.37;6.70;;;18.40;99.90;;;;;;5061451;28;20206;-44
2022/08/18 03:42:11;;;;;;;7.47;6.77;;;18.40;99.90;;;;;;5064256;28;20211;-43
2022/08/18 03:44:38;;;;;;;5.30;5.00;;;18.30;99.90;;;;;;5051026;28;20297;-42
2022/08/18 03:47:08;;;;;;;6.97;6.43;;;18.40;99.90;;;;;;5072376;28;20229;-40
2022/08/18 03:49:36;;;;;;;6.90;6.40;;;18.40;99.90;;;;;;5079477;28;20217;-40
2022/08/18 03:52:07;;;;;;;6.97;6.47;;;18.40;99.90;;;;;;5083771;28;20209;-41
2022/08/18 03:54:34;;;;;;;7.83;7.23;;;18.40;99.90;;;;;;5078840;28;20202;-40
2022/08/18 03:57:02;;;;;;;8.10;7.50;;;18.30;99.90;;;;;;5069678;28;20221;-42
2022/08/18 03:59:30;;;;;;;7.97;7.23;;;18.30;99.90;;;;;;5050275;28;20226;-42
2022/08/18 04:01:57;;;;;;;8.27;7.50;;;18.30;99.90;;;;;;5068968;28;20216;-42
2022/08/18 04:04:26;;;;;;;7.97;7.30;;;18.30;99.90;;;;;;5069951;28;20577;-40
2022/08/18 04:06:55;;;;;;;7.80;6.93;;;18.30;99.90;;;;;;5060605;28;20202;-41
2022/08/18 04:09:24;;;;;;;8.03;7.27;;;18.20;99.90;;;;;;5068915;28;20225;-43
2022/08/18 04:11:52;;;;;;;8.93;8.13;;;18.20;99.90;;;;;;5065545;28;20203;-40
2022/08/18 04:14:23;;;;;;;7.43;6.73;;;18.30;99.90;;;;;;5052006;28;20199;-40
2022/08/18 04:16:51;;;;;;;8.03;7.33;;;18.30;99.90;;;;;;5062733;28;20284;-41
2022/08/18 04:19:18;;;;;;;8.33;7.63;;;18.30;99.90;;;;;;5065822;28;20193;-40
2022/08/18 04:21:45;;;;;;;7.83;7.13;;;18.20;99.90;;;;;;5077522;28;20217;-39
2022/08/18 04:24:13;;;;;;;8.57;7.47;;;18.30;99.90;;;;;;5062788;28;20198;-41
2022/08/18 04:26:42;;;;;;;8.17;7.37;;;18.30;99.90;;;;;;5073671;28;20285;-40
2022/08/18 04:29:11;;;;;;;8.00;7.30;;;18.20;99.90;;;;;;5059131;28;20209;-40
2022/08/18 04:31:39;;;;;;;8.53;7.80;;;18.20;99.90;;;;;;5063798;28;20907;-43
2022/08/18 04:34:06;;;;;;;8.20;7.50;;;18.10;99.90;;;;;;5072789;28;20689;-43
2022/08/18 04:36:34;;;;;;;8.43;7.70;;;18.10;99.90;;;;;;5075841;28;20201;-42
2022/08/18 04:39:02;;;;;;;8.37;7.77;;;18.10;99.90;;;;;;5065377;28;20581;-40
2022/08/18 04:41:29;;;;;;;11.63;8.57;;;18.10;99.90;;;;;;5074049;28;20210;-41
2022/08/18 04:43:58;;;;;;;8.03;7.40;;;18.10;99.90;;;;;;5071254;28;20202;-42
2022/08/18 04:46:25;;;;;;;8.93;8.10;;;18.10;99.90;;;;;;5057844;28;20211;-59
2022/08/18 04:48:56;;;;;;;9.93;8.93;;;18.10;99.90;;;;;;5071568;28;20198;-59
2022/08/18 04:51:25;;;;;;;9.60;8.57;;;18.10;99.90;;;;;;5058738;28;20313;-41
2022/08/18 04:53:50;;;;;;;9.43;8.53;;;18.10;99.90;;;;;;5063802;28;20202;-40
2022/08/18 04:56:24;;;;;;;9.37;8.57;;;18.20;99.90;;;;;;5077550;28;20764;-43
2022/08/18 04:58:53;;;;;;;8.73;8.03;;;18.20;99.90;;;;;;5070725;28;20202;-39
2022/08/18 05:01:21;;;;;;;9.90;8.77;;;18.20;99.90;;;;;;5061369;28;20571;-41
2022/08/18 05:03:49;;;;;;;9.57;8.67;;;18.30;99.90;;;;;;5067743;28;20670;-41
2022/08/18 05:06:17;;;;;;;9.57;8.67;;;18.30;99.90;;;;;;5077660;28;20221;-42
2022/08/18 05:08:47;;;;;;;9.03;8.17;;;18.30;99.90;;;;;;5063525;28;20210;-41
2022/08/18 05:11:14;;;;;;;8.37;7.63;;;18.30;99.90;;;;;;5065813;28;20768;-42
2022/08/18 05:13:42;;;;;;;7.77;7.17;;;18.40;99.90;;;;;;5060613;28;20191;-41
2022/08/18 05:16:10;;;;;;;9.03;7.90;;;18.50;99.90;;;;;;5058938;28;20668;-42
2022/08/18 05:18:39;;;;;;;9.53;8.50;;;18.50;99.90;;;;;;5069865;28;20443;-41
2022/08/18 05:21:07;;;;;;;9.30;8.50;;;18.60;99.90;;;;;;5072221;28;20293;-41
2022/08/18 05:23:35;;;;;;;8.83;8.03;;;18.60;99.90;;;;;;5074822;28;20811;-42
2022/08/18 05:26:03;;;;;;;9.67;8.77;;;18.60;99.90;;;;;;5060247;28;20286;-43
2022/08/18 05:28:30;;;;;;;10.40;9.43;;;18.70;99.90;;;;;;5066047;28;20266;-42
2022/08/18 05:30:57;;;;;;;9.47;8.77;;;18.70;99.90;;;;;;5076629;28;20214;-41
2022/08/18 05:33:24;;;;;;;9.30;8.50;;;18.70;99.90;;;;;;5055413;28;20638;-42
2022/08/18 05:36:02;;;;;;;10.67;9.60;;;18.70;99.90;;;;;;5069490;28;20372;-41
2022/08/18 05:38:47;;;;;;;9.60;8.90;;;18.80;99.90;;;;;;5062398;28;20194;-42
2022/08/18 05:41:24;;;;;;;11.30;10.40;;;18.80;99.90;;;;;;5068013;28;20590;-45
2022/08/18 05:43:52;;;;;;;10.83;9.93;;;18.80;99.90;;;;;;5071615;28;20217;-41
2022/08/18 05:46:21;;;;;;;12.27;11.07;;;18.90;99.90;;;;;;5077271;28;20201;-42
2022/08/18 05:48:48;;;;;;;11.67;10.60;;;19.00;99.90;;;;;;5057534;28;20198;-41
2022/08/18 05:51:20;;;;;;;11.43;10.27;;;19.00;99.90;;;;;;5074350;28;20222;-42
2022/08/18 05:56:46;;;;;;;11.70;10.60;;;19.20;99.90;;;;;;5034892;28;20201;-46
2022/08/18 05:59:17;;;;;;;13.10;11.33;;;19.20;99.90;;;;;;5080062;28;20210;-42
2022/08/18 06:01:51;;;;;;;13.37;11.50;;;19.30;99.90;;;;;;5069470;28;20183;-43
2022/08/18 06:04:30;;;;;;;13.17;10.57;;;19.30;99.90;;;;;;5057338;28;20203;-41
2022/08/18 06:06:58;;;;;;;13.30;11.90;;;19.30;99.90;;;;;;5072539;28;20200;-42
2022/08/18 06:09:31;;;;;;;12.57;11.37;;;19.40;99.90;;;;;;5067795;28;20206;-42
2022/08/18 06:12:07;;;;;;;13.17;11.97;;;19.40;99.90;;;;;;5067994;28;20195;-45
2022/08/18 06:14:37;;;;;;;12.77;11.07;;;19.40;99.90;;;;;;5061313;28;20210;-44
2022/08/18 06:17:31;;;;;;;12.97;11.70;;;19.50;99.90;;;;;;5068202;28;20186;-41
2022/08/18 06:20:08;;;;;;;11.53;10.63;;;19.60;99.90;;;;;;5054199;28;20306;-43
2022/08/18 06:22:43;;;;;;;14.17;12.33;;;19.60;99.90;;;;;;5074394;28;20263;-42
2022/08/18 06:25:17;;;;;;;12.27;11.27;;;19.70;99.90;;;;;;5067180;28;20200;-45
2022/08/18 06:27:55;;;;;;;13.60;12.17;;;19.70;99.90;;;;;;5063953;28;20205;-43
2022/08/18 06:30:25;;;;;;;12.67;11.40;;;19.80;99.90;;;;;;5072163;28;20237;-41
2022/08/18 06:33:06;;;;;;;12.77;11.50;;;19.80;99.90;;;;;;5070441;28;20207;-43
2022/08/18 06:35:37;;;;;;;13.50;11.47;;;19.80;99.90;;;;;;5064565;28;20207;-42
2022/08/18 06:41:08;;;;;;;12.80;11.60;;;19.90;99.90;;;;;;5062955;28;20814;-41
2022/08/18 06:43:38;;;;;;;14.17;11.47;;;20.00;99.90;;;;;;5083557;28;20690;-42
2022/08/18 06:46:17;;;;;;;12.60;11.47;;;20.00;99.90;;;;;;5076397;28;20190;-42
2022/08/18 06:48:54;;;;;;;14.03;12.67;;;20.10;99.90;;;;;;5067070;28;20201;-40
2022/08/18 06:51:26;;;;;;;14.30;12.80;;;20.20;99.90;;;;;;5064322;28;20225;-42
2022/08/18 06:53:57;;;;;;;14.57;13.17;;;20.20;99.90;;;;;;5067402;28;20289;-54
2022/08/18 06:56:36;;;;;;;14.37;12.97;;;20.30;99.90;;;;;;5062348;28;20198;-53
2022/08/18 06:59:19;;;;;;;16.00;14.43;;;20.20;99.90;;;;;;5061633;28;20194;-54
2022/08/18 07:02:20;;;;;;;16.87;14.37;;;20.30;99.90;;;;;;5073982;28;20204;-51
2022/08/18 07:05:00;;;;;;;16.40;14.80;;;20.30;99.90;;;;;;5069844;28;20508;-53
2022/08/18 07:07:34;;;;;;;16.20;14.47;;;20.40;99.90;;;;;;5061750;28;20210;-54
2022/08/18 07:10:01;;;;;;;15.27;13.98;;;20.50;99.90;;;;;;5065704;28;20231;-48
2022/08/18 07:12:30;;;;;;;15.63;13.97;;;20.60;99.90;;;;;;5067161;28;20213;-51
2022/08/18 07:14:58;;;;;;;15.53;14.13;;;20.60;99.90;;;;;;5072162;28;20193;-50
2022/08/18 07:17:29;;;;;;;17.83;14.10;;;20.70;99.90;;;;;;5060787;28;22813;-54
2022/08/18 07:20:02;;;;;;;14.27;12.83;;;20.80;99.90;;;;;;5075132;28;20570;-50
2022/08/18 07:22:30;;;;;;;15.00;13.53;;;20.90;99.90;;;;;;5058623;28;20209;-50
2022/08/18 07:24:59;;;;;;;13.90;12.70;;;21.00;99.90;;;;;;5063464;28;20201;-53
2022/08/18 07:27:47;;;;;;;17.80;15.93;;;21.00;99.90;;;;;;5070702;28;20660;-52
2022/08/18 07:30:37;;;;;;;18.73;16.93;;;21.10;99.90;;;;;;5072701;28;20214;-53
2022/08/18 07:33:13;;;;;;;19.53;17.53;;;21.00;99.90;;;;;;5066472;28;20968;-50
2022/08/18 07:35:45;;;;;;;28.47;25.37;;;21.00;99.90;;;;;;5062484;28;20677;-54
2022/08/18 07:38:19;;;;;;;36.00;29.87;;;20.90;99.90;;;;;;5040465;28;20198;-54
2022/08/18 07:40:53;;;;;;;44.10;36.30;;;20.80;99.90;;;;;;5071353;28;20229;-53
2022/08/18 07:43:28;;;;;;;47.83;38.50;;;20.70;99.90;;;;;;5060919;28;20880;-50
2022/08/18 07:46:02;;;;;;;50.60;38.40;;;20.60;99.90;;;;;;5064654;28;20198;-51
2022/08/18 07:48:33;;;;;;;51.57;39.17;;;20.60;99.90;;;;;;5072674;28;20946;-52
2022/08/18 07:51:09;;;;;;;52.47;40.33;;;20.50;99.90;;;;;;5070733;28;20229;-55
2022/08/18 07:53:47;;;;;;;56.37;40.40;;;20.50;99.90;;;;;;5056853;28;20206;-54
2022/08/18 07:56:23;;;;;;;59.70;41.23;;;20.50;99.90;;;;;;5069574;28;20200;-56
2022/08/18 07:58:57;;;;;;;61.00;39.57;;;20.40;99.90;;;;;;5063683;28;20286;-51
2022/08/18 08:01:29;;;;;;;60.17;38.93;;;20.40;99.90;;;;;;5070372;28;20214;-54
2022/08/18 08:04:06;;;;;;;60.47;40.10;;;20.40;99.90;;;;;;5069533;28;20202;-53
2022/08/18 08:06:39;;;;;;;52.73;37.27;;;20.30;99.90;;;;;;5070072;28;20190;-51
2022/08/18 08:09:12;;;;;;;51.00;36.40;;;20.30;99.90;;;;;;5059695;28;20198;-53
2022/08/18 08:11:47;;;;;;;50.47;36.20;;;20.30;99.90;;;;;;5076307;28;20214;-53
2022/08/18 08:14:40;;;;;;;52.07;36.67;;;20.30;99.90;;;;;;5053263;28;20209;-50
2022/08/18 08:17:16;;;;;;;51.70;37.20;;;20.30;99.90;;;;;;5060317;28;20668;-54
2022/08/18 08:20:11;;;;;;;52.37;36.33;;;20.30;99.90;;;;;;5070474;28;20336;-52
2022/08/18 08:22:47;;;;;;;45.73;35.20;;;20.30;99.90;;;;;;5061374;28;20201;-49
2022/08/18 08:25:23;;;;;;;42.17;32.60;;;20.30;99.90;;;;;;5050405;28;20205;-53
2022/08/18 08:28:06;;;;;;;47.50;36.07;;;20.30;99.90;;;;;;5070516;28;20198;-55
2022/08/18 08:30:44;;;;;;;47.60;37.33;;;20.20;99.90;;;;;;5066342;28;20230;-52
2022/08/18 08:33:16;;;;;;;44.63;34.93;;;20.20;99.90;;;;;;5070072;28;20205;-52
2022/08/18 08:35:47;;;;;;;39.77;31.30;;;20.30;99.90;;;;;;5069857;28;20198;-54
2022/08/18 08:38:19;;;;;;;39.57;30.87;;;20.30;99.90;;;;;;5067153;28;20667;-51
2022/08/18 08:40:52;;;;;;;38.53;28.00;;;20.30;99.90;;;;;;5049799;28;20218;-50
2022/08/18 08:43:25;;;;;;;43.57;30.97;;;20.30;99.90;;;;;;5071823;28;20206;-55
2022/08/18 08:46:04;;;;;;;47.40;30.90;;;20.30;99.90;;;;;;5050850;28;20215;-50
2022/08/18 08:48:35;;;;;;;38.87;28.83;;;20.40;99.90;;;;;;5064468;28;20563;-53
2022/08/18 08:51:11;;;;;;;39.93;28.60;;;20.40;99.90;;;;;;5069604;28;20218;-54
2022/08/18 08:53:43;;;;;;;34.33;25.27;;;20.60;99.90;;;;;;5067743;28;20209;-51
2022/08/18 08:56:14;;;;;;;31.10;24.00;;;20.70;99.90;;;;;;5056124;28;20221;-51
2022/08/18 08:58:48;;;;;;;30.97;22.90;;;20.60;99.90;;;;;;5063929;28;20619;-51
2022/08/18 09:01:24;;;;;;;32.50;23.93;;;20.70;99.90;;;;;;5065784;28;20334;-53
2022/08/18 09:03:59;;;;;;;27.37;22.60;;;20.80;99.90;;;;;;5064663;28;20206;-52
2022/08/18 09:06:42;;;;;;;31.73;23.40;;;20.90;99.90;;;;;;5074410;28;20220;-51
2022/08/18 09:09:26;;;;;;;27.27;22.23;;;21.00;99.90;;;;;;5067644;28;20186;-48
2022/08/18 09:12:14;;;;;;;27.57;22.20;;;21.10;99.90;;;;;;5060859;28;20232;-52
2022/08/18 09:15:07;;;;;;;27.07;21.87;;;21.20;99.90;;;;;;5073276;28;20206;-53
2022/08/18 09:17:56;;;;;;;30.50;22.53;;;21.30;99.90;;;;;;5056632;28;20210;-53
2022/08/18 09:20:57;;;;;;;27.07;22.13;;;21.40;99.90;;;;;;5065567;28;20258;-53
2022/08/18 09:23:27;;;;;;;29.07;22.97;;;21.50;99.90;;;;;;5064216;28;20202;-51
2022/08/18 09:25:57;;;;;;;27.97;23.23;;;21.60;99.90;;;;;;5066571;28;20213;-48
2022/08/18 09:28:55;;;;;;;24.90;21.73;;;21.70;99.90;;;;;;5071057;28;20206;-46
2022/08/18 09:31:23;;;;;;;27.43;21.00;;;21.70;99.90;;;;;;5065966;28;20227;-52
2022/08/18 09:34:25;;;;;;;27.30;22.20;;;21.80;99.90;;;;;;5064326;28;20217;-55
2022/08/18 09:37:09;;;;;;;27.47;21.00;;;21.80;99.90;;;;;;5059796;28;20289;-48
2022/08/18 09:42:35;;;;;;;26.30;20.80;;;21.80;99.90;;;;;;5060106;28;20256;-48
2022/08/18 09:45:07;;;;;;;26.38;20.75;;;21.90;99.90;;;;;;5064807;28;20206;-48
2022/08/18 09:47:57;;;;;;;26.35;22.50;;;22.00;99.90;;;;;;5066495;28;20287;-52
2022/08/18 09:51:01;;;;;;;23.88;21.38;;;22.00;99.90;;;;;;5072145;28;20226;-48
2022/08/18 09:53:53;;;;;;;29.75;22.25;;;21.90;99.90;;;;;;5023172;28;20560;-45
2022/08/18 09:56:53;;;;;;;27.05;22.30;;;21.90;99.90;;;;;;5062886;28;20305;-46
2022/08/18 10:00:07;;;;;;;23.48;20.30;;;22.00;99.90;;;;;;5078764;28;20197;-49
2022/08/18 10:03:11;;;;;;;23.53;19.13;;;22.10;99.90;;;;;;5067297;28;20194;-49
2022/08/18 10:05:38;;;;;;;28.55;22.98;;;22.20;99.90;;;;;;5061044;28;20212;-49
2022/08/18 10:08:38;;;;;;;28.67;21.20;;;22.30;99.90;;;;;;5078592;28;20209;-45
2022/08/18 10:11:22;;;;;;;25.23;22.02;;;22.30;99.90;;;;;;5076311;28;20221;-46
2022/08/18 10:14:04;;;;;;;26.88;22.52;;;22.30;99.90;;;;;;5054144;28;20207;-46
2022/08/18 10:16:42;;;;;;;27.80;21.58;;;22.30;99.90;;;;;;5065919;28;20200;-48
2022/08/18 10:19:20;;;;;;;26.25;23.45;;;22.40;99.90;;;;;;5063509;28;20553;-43
2022/08/18 10:22:05;;;;;;;28.70;22.05;;;22.50;99.90;;;;;;5064172;28;20202;-43
2022/08/18 10:24:38;;;;;;;28.23;22.98;;;22.50;99.90;;;;;;5063319;28;20660;-45
2022/08/18 10:27:12;;;;;;;24.88;21.63;;;22.50;99.90;;;;;;5061091;28;20210;-49
2022/08/18 10:29:51;;;;;;;27.20;22.92;;;22.60;99.90;;;;;;5065821;28;20345;-49
2022/08/18 10:32:24;;;;;;;23.95;21.35;;;22.60;99.90;;;;;;5073019;28;20689;-50
2022/08/18 10:34:54;;;;;;;27.00;21.13;;;22.60;99.90;;;;;;5055803;28;20198;-46
2022/08/18 10:37:25;;;;;;;24.65;21.85;;;22.60;99.90;;;;;;5066634;28;20291;-45
2022/08/18 10:39:57;;;;;;;26.77;22.00;;;22.70;99.90;;;;;;5068187;28;20245;-45
2022/08/18 10:42:27;;;;;;;25.80;21.70;;;22.70;99.90;;;;;;5068833;28;20212;-52
2022/08/18 10:45:05;;;;;;;26.83;22.27;;;22.90;99.90;;;;;;5063367;28;20210;-47
2022/08/18 10:47:32;;;;;;;24.48;20.90;;;23.00;99.90;;;;;;5066534;28;20205;-52
2022/08/18 10:50:06;;;;;;;23.25;20.63;;;23.00;99.90;;;;;;5062886;28;21763;-43
2022/08/18 10:53:02;;;;;;;24.05;20.50;;;22.90;99.90;;;;;;5068323;28;20230;-43
2022/08/18 10:55:50;;;;;;;24.02;21.25;;;23.00;99.90;;;;;;5064148;28;20197;-45
2022/08/18 10:58:34;;;;;;;20.85;18.60;;;23.00;99.90;;;;;;5071400;28;20194;-47
2022/08/18 11:01:16;;;;;;;24.10;21.13;;;23.10;99.90;;;;;;5065302;28;20213;-43
2022/08/18 11:04:03;;;;;;;25.45;22.73;;;23.20;99.90;;;;;;5069798;28;20811;-48
2022/08/18 11:06:40;;;;;;;27.38;23.08;;;23.30;99.90;;;;;;5058573;28;20198;-44
2022/08/18 11:09:08;;;;;;;24.60;22.00;;;23.30;99.90;;;;;;5062751;28;20198;-43
2022/08/18 11:11:41;;;;;;;23.40;20.92;;;23.30;99.90;;;;;;5075328;28;20213;-42
2022/08/18 11:14:36;;;;;;;23.83;20.92;;;23.30;99.90;;;;;;5080059;28;20202;-45
2022/08/18 11:17:11;;;;;;;26.10;21.75;;;23.30;99.90;;;;;;5065512;28;20202;-45
2022/08/18 11:19:40;;;;;;;24.80;19.35;;;23.40;99.90;;;;;;5065111;28;20220;-50
2022/08/18 11:22:20;;;;;;;22.00;19.63;;;23.60;99.90;;;;;;5065850;28;20256;-44
2022/08/18 11:24:48;;;;;;;22.85;20.33;;;23.70;99.90;;;;;;5063965;28;20193;-43
2022/08/18 11:27:21;;;;;;;23.77;21.35;;;23.70;99.90;;;;;;5078458;28;20809;-47
2022/08/18 11:29:48;;;;;;;23.58;21.20;;;23.90;99.90;;;;;;5050874;28;20448;-48
2022/08/18 11:32:21;;;;;;;24.95;21.50;;;24.10;99.90;;;;;;5068567;28;20225;-64
2022/08/18 11:34:52;;;;;;;22.20;19.90;;;24.00;99.90;;;;;;5066018;28;20193;-69
2022/08/18 11:37:26;;;;;;;22.05;19.05;;;24.00;99.90;;;;;;5061556;28;20198;-45
2022/08/18 11:39:56;;;;;;;20.63;18.55;;;24.00;99.90;;;;;;5061428;28;20222;-51
2022/08/18 11:42:30;;;;;;;22.33;19.25;;;24.00;99.90;;;;;;5066559;28;20216;-46
2022/08/18 11:45:06;;;;;;;23.38;20.90;;;24.10;99.90;;;;;;5063278;28;20223;-47
2022/08/18 11:47:36;;;;;;;20.70;18.52;;;24.10;99.90;;;;;;5056506;28;20234;-53
2022/08/18 11:50:08;;;;;;;22.52;19.48;;;24.20;99.90;;;;;;5067969;28;20217;-47
2022/08/18 11:52:48;;;;;;;22.02;18.73;;;24.40;99.90;;;;;;5061916;28;20217;-52
2022/08/18 11:55:20;;;;;;;18.52;16.63;;;24.60;99.90;;;;;;5058134;28;20264;-48
2022/08/18 11:57:54;;;;;;;16.30;14.63;;;24.80;99.90;;;;;;5067184;28;20275;-49
2022/08/18 12:00:40;;;;;;;19.27;17.20;;;24.90;99.90;;;;;;5064471;28;20257;-52
2022/08/18 12:03:14;;;;;;;19.48;17.40;;;25.10;99.90;;;;;;5051485;28;20275;-56
2022/08/18 12:05:48;;;;;;;19.17;17.27;;;25.30;99.90;;;;;;5067910;28;20202;-49
2022/08/18 12:08:27;;;;;;;15.20;13.70;;;25.40;99.90;;;;;;5065477;28;20285;-50
2022/08/18 12:11:04;;;;;;;16.45;14.85;;;25.40;99.90;;;;;;5058403;28;20299;-46
2022/08/18 12:13:32;;;;;;;14.63;13.02;;;25.40;99.90;;;;;;5069937;28;20228;-50
2022/08/18 12:16:15;;;;;;;13.98;12.70;;;25.30;99.90;;;;;;5065004;28;20191;-52
2022/08/18 12:18:43;;;;;;;15.60;13.75;;;25.30;99.90;;;;;;5052702;28;20209;-48
2022/08/18 12:21:10;;;;;;;14.00;12.55;;;25.20;99.90;;;;;;5072856;28;20217;-51
2022/08/18 12:23:41;;;;;;;15.18;13.65;;;25.20;99.90;;;;;;5062421;28;20202;-53
2022/08/18 12:26:09;;;;;;;13.77;12.43;;;25.20;99.90;;;;;;5064316;28;20202;-52
2022/08/18 12:28:38;;;;;;;15.98;12.65;;;25.30;99.90;;;;;;5073331;28;20194;-53
2022/08/18 12:31:06;;;;;;;14.48;13.05;;;25.20;99.90;;;;;;5066189;28;20221;-47
2022/08/18 12:33:33;;;;;;;14.73;13.32;;;25.30;99.90;;;;;;5055917;28;20707;-48
2022/08/18 12:35:59;;;;;;;14.88;13.48;;;25.50;99.90;;;;;;5067350;28;20190;-51
2022/08/18 12:38:27;;;;;;;13.73;12.38;;;25.50;99.90;;;;;;5070955;28;20243;-54
2022/08/18 12:40:53;;;;;;;12.13;11.02;;;25.60;99.90;;;;;;5060303;28;20237;-53
2022/08/18 12:43:20;;;;;;;11.30;10.40;;;25.40;99.90;;;;;;5069400;28;20206;-52
2022/08/18 12:45:49;;;;;;;12.18;10.93;;;25.40;99.90;;;;;;5054560;28;20206;-52
2022/08/18 12:48:15;;;;;;;11.50;10.32;;;25.30;99.90;;;;;;5059017;28;20207;-54
2022/08/18 12:50:43;;;;;;;12.95;11.75;;;25.40;99.90;;;;;;5065198;28;20226;-53
2022/08/18 12:53:10;;;;;;;11.07;9.50;;;25.50;99.90;;;;;;5064744;28;20225;-50
2022/08/18 12:55:41;;;;;;;10.98;9.98;;;25.70;99.90;;;;;;5062441;28;20207;-50
2022/08/18 12:58:08;;;;;;;9.07;8.38;;;25.80;99.90;;;;;;5071235;28;20198;-52
2022/08/18 13:00:36;;;;;;;10.57;8.35;;;25.80;99.90;;;;;;5072453;28;20744;-51
2022/08/18 13:03:04;;;;;;;9.82;8.95;;;25.90;99.90;;;;;;5060409;28;20210;-51
2022/08/18 13:05:30;;;;;;;9.82;8.93;;;26.20;99.90;;;;;;5046637;28;20571;-51
2022/08/18 13:08:00;;;;;;;10.52;9.50;;;26.40;99.90;;;;;;5060018;28;20204;-53
2022/08/18 13:10:27;;;;;;;10.88;9.88;;;26.60;99.90;;;;;;5055962;28;20908;-51
2022/08/18 13:12:53;;;;;;;10.10;9.30;;;27.00;99.90;;;;;;5055717;28;20585;-49
2022/08/18 13:15:20;;;;;;;10.98;9.85;;;27.30;99.90;;;;;;5062814;28;21697;-49
2022/08/18 13:17:48;;;;;;;12.07;10.95;;;27.50;99.90;;;;;;5072024;28;20286;-50